Time;durP1;ratioP1;P1;durP2;ratioP2;P2;SDS_P1;SDS_P2;PMS_P1;PMS_P2;Temp;Humidity;BMP_temperature;BMP_pressure;BME280_temperature;BME280_humidity;BME280_pressure;Samples;Min_cycle;Max_cycle;Signal;HPM_P1;HPM_P2
2021/09/17 00:01:40;;;;;;;9.30;6.88;;;;;;;;;;10321285;28;20083;-65
2021/09/17 00:06:38;;;;;;;7.20;6.50;;;;;;;;;;10320755;28;20048;-65
2021/09/17 00:11:37;;;;;;;11.30;6.30;;;;;;;;;;10320642;28;20076;-65
2021/09/17 00:16:36;;;;;;;8.43;6.00;;;;;;;;;;10320576;28;20056;-65
2021/09/17 00:21:35;;;;;;;10.43;6.57;;;;;;;;;;10362226;28;20024;-65
2021/09/17 00:26:33;;;;;;;9.32;6.65;;;;;;;;;;10330036;28;20048;-65
2021/09/17 00:31:32;;;;;;;10.40;6.60;;;;;;;;;;10321234;28;20063;-65
2021/09/17 00:36:31;;;;;;;8.65;6.45;;;;;;;;;;10319236;28;20089;-65
2021/09/17 00:41:30;;;;;;;8.70;6.70;;;;;;;;;;10318419;28;20052;-65
2021/09/17 00:46:28;;;;;;;7.07;6.38;;;;;;;;;;10324083;28;20413;-66
2021/09/17 00:51:26;;;;;;;7.75;6.70;;;;;;;;;;10324285;28;20055;-66
2021/09/17 00:56:26;;;;;;;7.78;6.68;;;;;;;;;;10317945;28;20539;-67
2021/09/17 01:01:24;;;;;;;10.57;6.25;;;;;;;;;;10318596;28;20076;-65
2021/09/17 01:06:23;;;;;;;7.60;5.65;;;;;;;;;;10318482;28;20044;-65
2021/09/17 01:11:38;;;;;;;10.27;6.22;;;;;;;;;;10317395;28;20041;-65
2021/09/17 01:16:37;;;;;;;6.65;5.55;;;;;;;;;;10317961;28;20084;-65
2021/09/17 01:21:37;;;;;;;6.57;5.78;;;;;;;;;;10317597;28;20072;-65
2021/09/17 01:26:35;;;;;;;8.15;6.35;;;;;;;;;;10317986;28;20075;-65
2021/09/17 01:31:33;;;;;;;6.75;6.15;;;;;;;;;;10317535;28;20048;-65
2021/09/17 01:36:31;;;;;;;7.40;6.10;;;;;;;;;;10317396;28;20079;-65
2021/09/17 01:41:31;;;;;;;7.32;5.95;;;;;;;;;;10317537;28;20517;-65
2021/09/17 01:46:29;;;;;;;8.10;5.90;;;;;;;;;;10317534;28;20591;-65
2021/09/17 01:51:28;;;;;;;9.32;6.07;;;;;;;;;;10316197;28;20532;-65
2021/09/17 01:56:26;;;;;;;9.88;6.38;;;;;;;;;;10317131;28;20084;-65
2021/09/17 02:01:26;;;;;;;11.25;5.95;;;;;;;;;;10317005;28;20063;-65
2021/09/17 02:06:25;;;;;;;9.45;5.25;;;;;;;;;;10317062;28;20049;-65
2021/09/17 02:11:24;;;;;;;7.40;6.18;;;;;;;;;;10316839;28;20099;-64
2021/09/17 02:16:22;;;;;;;11.30;6.57;;;;;;;;;;10316824;28;20477;-64
2021/09/17 02:21:22;;;;;;;8.63;5.85;;;;;;;;;;10317136;28;20409;-65
2021/09/17 02:26:20;;;;;;;9.80;6.85;;;;;;;;;;10316624;28;20040;-64
2021/09/17 02:31:19;;;;;;;8.27;5.97;;;;;;;;;;10317428;28;20413;-64
2021/09/17 02:36:17;;;;;;;7.18;5.68;;;;;;;;;;10324250;28;20044;-64
2021/09/17 02:41:17;;;;;;;8.07;7.22;;;;;;;;;;10323143;28;20049;-64
2021/09/17 02:46:15;;;;;;;8.55;6.20;;;;;;;;;;10323714;28;20055;-64
2021/09/17 02:51:14;;;;;;;7.13;6.50;;;;;;;;;;10322648;28;20060;-64
2021/09/17 02:56:12;;;;;;;11.30;6.22;;;;;;;;;;10323485;28;20072;-64
2021/09/17 03:01:13;;;;;;;7.05;6.10;;;;;;;;;;10323020;28;20059;-64
2021/09/17 03:06:12;;;;;;;9.98;6.72;;;;;;;;;;10323018;28;20049;-63
2021/09/17 03:11:10;;;;;;;8.55;5.88;;;;;;;;;;10322249;28;20075;-64
2021/09/17 03:16:11;;;;;;;10.82;5.78;;;;;;;;;;10322677;28;20076;-64
2021/09/17 03:21:11;;;;;;;6.68;6.07;;;;;;;;;;10322685;28;20391;-64
2021/09/17 03:26:09;;;;;;;7.75;5.40;;;;;;;;;;10321617;28;20075;-64
2021/09/17 03:31:08;;;;;;;7.05;6.10;;;;;;;;;;10322200;28;20048;-64
2021/09/17 03:36:06;;;;;;;6.75;5.82;;;;;;;;;;10321951;28;20079;-65
2021/09/17 03:41:06;;;;;;;6.57;5.97;;;;;;;;;;10321893;28;20124;-63
2021/09/17 03:46:04;;;;;;;12.13;7.07;;;;;;;;;;10321364;28;20455;-64
2021/09/17 03:51:02;;;;;;;6.78;5.35;;;;;;;;;;10320589;28;20052;-65
2021/09/17 03:56:01;;;;;;;8.48;6.25;;;;;;;;;;10321150;28;20075;-64
2021/09/17 04:01:00;;;;;;;9.68;7.13;;;;;;;;;;10320804;28;20063;-64
2021/09/17 04:05:59;;;;;;;14.52;7.43;;;;;;;;;;10321102;28;20068;-65
2021/09/17 04:10:58;;;;;;;8.23;6.05;;;;;;;;;;10354762;28;20043;-64
2021/09/17 04:15:56;;;;;;;23.33;14.75;;;;;;;;;;10327293;28;20040;-64
2021/09/17 04:20:56;;;;;;;15.02;10.60;;;;;;;;;;10320009;28;20055;-64
2021/09/17 04:25:54;;;;;;;10.35;7.03;;;;;;;;;;10319766;28;20055;-64
2021/09/17 04:30:52;;;;;;;15.55;13.18;;;;;;;;;;10319683;28;20501;-63
2021/09/17 04:35:50;;;;;;;55.40;43.67;;;;;;;;;;10319514;28;20529;-64
2021/09/17 04:40:50;;;;;;;18.95;14.48;;;;;;;;;;10349772;28;20056;-64
2021/09/17 04:45:49;;;;;;;13.60;6.95;;;;;;;;;;10319606;28;20055;-64
2021/09/17 04:50:47;;;;;;;13.93;6.85;;;;;;;;;;10316977;28;20052;-64
2021/09/17 04:55:47;;;;;;;10.63;7.20;;;;;;;;;;10313502;28;20086;-65
2021/09/17 05:00:46;;;;;;;18.13;14.85;;;;;;;;;;10314378;28;20088;-65
2021/09/17 05:05:45;;;;;;;22.05;14.13;;;;;;;;;;10314658;28;20076;-64
2021/09/17 05:10:43;;;;;;;12.05;6.55;;;;;;;;;;10317534;28;20079;-64
2021/09/17 05:15:41;;;;;;;8.93;6.40;;;;;;;;;;10318157;28;20044;-64
2021/09/17 05:20:41;;;;;;;12.52;6.93;;;;;;;;;;10317945;28;20041;-66
2021/09/17 05:25:39;;;;;;;10.65;6.93;;;;;;;;;;10317684;28;20048;-64
2021/09/17 05:30:38;;;;;;;12.18;6.15;;;;;;;;;;10317326;28;20071;-64
2021/09/17 05:35:36;;;;;;;10.88;6.30;;;;;;;;;;10317319;28;20080;-65
2021/09/17 05:40:36;;;;;;;6.13;5.53;;;;;;;;;;10316541;28;20436;-63
2021/09/17 05:45:34;;;;;;;11.52;9.35;;;;;;;;;;10317083;28;20059;-63
2021/09/17 05:50:32;;;;;;;9.63;6.57;;;;;;;;;;10316525;28;20072;-64
2021/09/17 05:55:31;;;;;;;7.97;6.45;;;;;;;;;;10316647;28;20087;-66
2021/09/17 06:00:30;;;;;;;8.55;5.53;;;;;;;;;;10316694;28;20048;-65
2021/09/17 06:05:29;;;;;;;8.77;6.78;;;;;;;;;;10318227;28;20045;-64
2021/09/17 06:10:28;;;;;;;14.23;7.35;;;;;;;;;;10325227;28;20044;-65
2021/09/17 06:15:26;;;;;;;15.20;8.23;;;;;;;;;;10324841;28;20421;-65
2021/09/17 06:20:26;;;;;;;10.23;6.50;;;;;;;;;;10325209;28;20477;-65
2021/09/17 06:25:24;;;;;;;9.52;8.52;;;;;;;;;;10324577;28;20083;-65
2021/09/17 06:30:23;;;;;;;9.73;8.73;;;;;;;;;;10322322;28;20511;-65
2021/09/17 06:35:21;;;;;;;10.18;6.80;;;;;;;;;;10320786;28;20106;-65
2021/09/17 06:40:22;;;;;;;8.07;5.72;;;;;;;;;;10323647;28;20417;-64
2021/09/17 06:45:20;;;;;;;10.27;6.95;;;;;;;;;;10323712;28;20508;-65
2021/09/17 06:50:19;;;;;;;6.78;6.07;;;;;;;;;;10322516;28;20488;-65
2021/09/17 06:55:18;;;;;;;7.68;6.82;;;;;;;;;;10323337;28;20051;-65
2021/09/17 07:00:18;;;;;;;12.35;6.63;;;;;;;;;;10323022;28;20079;-65
2021/09/17 07:05:17;;;;;;;7.88;6.32;;;;;;;;;;10322830;28;20076;-64
2021/09/17 07:10:16;;;;;;;13.32;8.43;;;;;;;;;;10322236;28;20433;-65
2021/09/17 07:15:16;;;;;;;10.70;6.45;;;;;;;;;;10322791;28;20060;-65
2021/09/17 07:20:16;;;;;;;12.73;8.00;;;;;;;;;;10321089;28;20084;-65
2021/09/17 07:25:15;;;;;;;13.85;8.50;;;;;;;;;;10322268;28;20080;-65
2021/09/17 07:30:14;;;;;;;18.85;11.55;;;;;;;;;;10322057;28;20060;-66
2021/09/17 07:35:12;;;;;;;9.43;8.40;;;;;;;;;;10321252;28;20072;-67
2021/09/17 07:40:14;;;;;;;15.82;8.70;;;;;;;;;;10320971;28;20072;-65
2021/09/17 07:45:14;;;;;;;17.10;8.13;;;;;;;;;;10321361;28;20071;-64
2021/09/17 07:50:13;;;;;;;16.50;8.98;;;;;;;;;;10320852;28;20521;-65
2021/09/17 07:55:13;;;;;;;12.68;9.90;;;;;;;;;;10320925;28;20051;-65
2021/09/17 08:00:12;;;;;;;17.40;10.75;;;;;;;;;;10341194;28;20041;-63
2021/09/17 08:05:11;;;;;;;26.35;14.00;;;;;;;;;;10330202;28;20048;-65
2021/09/17 08:10:10;;;;;;;15.07;10.05;;;;;;;;;;10320541;28;20597;-66
2021/09/17 08:15:10;;;;;;;18.10;10.75;;;;;;;;;;10320098;28;20386;-64
2021/09/17 08:20:09;;;;;;;20.05;9.98;;;;;;;;;;10320746;28;20044;-65
2021/09/17 08:25:08;;;;;;;16.40;9.45;;;;;;;;;;10319967;28;20044;-66
2021/09/17 08:30:08;;;;;;;18.55;9.18;;;;;;;;;;10337004;28;20421;-66
2021/09/17 08:35:08;;;;;;;16.50;11.43;;;;;;;;;;10319486;28;20048;-65
2021/09/17 08:40:07;;;;;;;22.85;11.23;;;;;;;;;;10319168;28;20084;-65
2021/09/17 08:45:06;;;;;;;15.27;9.02;;;;;;;;;;10319578;28;20080;-65
2021/09/17 08:50:06;;;;;;;14.90;9.57;;;;;;;;;;10318072;28;20053;-65
2021/09/17 08:55:06;;;;;;;13.38;8.43;;;;;;;;;;10318779;28;20476;-65
2021/09/17 09:00:05;;;;;;;13.57;6.78;;;;;;;;;;10318322;28;20517;-65
2021/09/17 09:05:05;;;;;;;10.52;7.50;;;;;;;;;;10318707;28;20044;-65
2021/09/17 09:10:09;;;;;;;10.73;7.82;;;;;;;;;;10318291;28;20072;-65
2021/09/17 09:15:07;;;;;;;;;;;;;;;;;;10318525;28;20072;-65
2021/09/17 09:20:20;;;;;;;13.40;7.55;;;;;;;;;;10317180;28;19955;-64
2021/09/17 09:25:20;;;;;;;14.20;7.43;;;;;;;;;;10318355;28;20049;-64
2021/09/17 09:30:28;;;;;;;8.13;6.72;;;;;;;;;;10317541;28;20044;-64
2021/09/17 09:35:33;;;;;;;8.10;7.30;;;;;;;;;;10317088;28;20048;-64
2021/09/17 09:40:33;;;;;;;9.35;6.63;;;;;;;;;;10316978;28;20051;-65
2021/09/17 09:45:32;;;;;;;12.85;7.03;;;;;;;;;;10317237;28;20048;-65
2021/09/17 09:50:31;;;;;;;9.43;5.72;;;;;;;;;;10316653;28;20528;-65
2021/09/17 09:55:32;;;;;;;16.08;7.22;;;;;;;;;;10317114;28;20098;-65
2021/09/17 10:00:32;;;;;;;12.00;6.90;;;;;;;;;;10317236;28;20473;-65
2021/09/17 10:05:32;;;;;;;7.68;6.63;;;;;;;;;;10316745;28;20045;-65
2021/09/17 10:10:30;;;;;;;14.27;7.30;;;;;;;;;;10317056;28;20051;-65
2021/09/17 10:15:35;;;;;;;10.60;9.57;;;;;;;;;;10316350;28;20061;-64
2021/09/17 10:20:43;;;;;;;20.80;18.95;;;;;;;;;;10316502;28;20073;-64
2021/09/17 10:25:57;;;;;;;18.10;16.17;;;;;;;;;;10316432;28;20041;-66
2021/09/17 10:31:09;;;;;;;19.55;17.17;;;;;;;;;;10316610;28;20505;-63
2021/09/17 10:36:08;;;;;;;18.35;15.77;;;;;;;;;;10316458;28;20067;-66
2021/09/17 10:41:07;;;;;;;20.23;17.60;;;;;;;;;;10316303;28;20075;-65
2021/09/17 10:46:07;;;;;;;30.27;15.63;;;;;;;;;;10316075;28;20049;-65
2021/09/17 10:51:06;;;;;;;22.58;11.95;;;;;;;;;;10315174;28;20076;-65
2021/09/17 10:56:04;;;;;;;10.32;8.18;;;;;;;;;;10322623;28;20044;-65
2021/09/17 11:01:04;;;;;;;14.88;8.90;;;;;;;;;;10321778;28;20059;-65
2021/09/17 11:06:21;;;;;;;13.27;9.00;;;;;;;;;;10323159;28;20417;-65
2021/09/17 11:11:25;;;;;;;16.25;11.05;;;;;;;;;;10322845;28;20409;-66
2021/09/17 11:16:24;;;;;;;13.63;12.05;;;;;;;;;;10322840;28;20055;-64
2021/09/17 11:21:23;;;;;;;12.32;9.77;;;;;;;;;;10322466;28;20076;-65
2021/09/17 11:26:22;;;;;;;11.73;9.60;;;;;;;;;;10320735;28;20127;-65
2021/09/17 11:31:22;;;;;;;12.82;8.02;;;;;;;;;;10322225;28;20036;-65
2021/09/17 11:36:33;;;;;;;8.90;7.35;;;;;;;;;;10322078;28;20043;-65
2021/09/17 11:41:36;;;;;;;9.52;6.70;;;;;;;;;;10321795;28;20052;-65
2021/09/17 11:46:34;;;;;;;;;;;;;;;;;;10322307;28;20041;-65
2021/09/17 11:51:34;;;;;;;12.15;6.93;;;;;;;;;;10329809;28;19927;-65
2021/09/17 11:56:32;;;;;;;10.68;6.55;;;;;;;;;;10321366;28;20273;-65
2021/09/17 12:01:31;;;;;;;9.60;5.60;;;;;;;;;;10321348;28;20060;-66
2021/09/17 12:06:29;;;;;;;10.40;5.85;;;;;;;;;;10320714;28;20051;-65
2021/09/17 12:11:29;;;;;;;7.50;6.78;;;;;;;;;;10320827;28;20049;-65
2021/09/17 12:16:27;;;;;;;10.40;5.32;;;;;;;;;;10321004;28;20048;-66
2021/09/17 12:21:25;;;;;;;8.02;5.82;;;;;;;;;;10328812;28;20154;-65
2021/09/17 12:26:52;;;;;;;9.93;6.53;;;;;;;;;;10320547;28;20040;-66
2021/09/17 12:31:50;;;;;;;9.00;5.63;;;;;;;;;;10320280;28;20045;-65
2021/09/17 12:36:50;;;;;;;10.95;6.03;;;;;;;;;;10320134;28;20076;-65
2021/09/17 12:42:04;;;;;;;7.88;4.70;;;;;;;;;;10319353;28;20075;-65
2021/09/17 12:47:04;;;;;;;8.52;5.15;;;;;;;;;;10317495;28;20056;-65
2021/09/17 12:52:02;;;;;;;14.02;5.55;;;;;;;;;;10317968;28;20056;-66
2021/09/17 12:57:12;;;;;;;9.75;5.00;;;;;;;;;;10319078;28;20055;-65
2021/09/17 13:02:11;;;;;;;17.88;6.25;;;;;;;;;;10318891;28;20466;-65
2021/09/17 13:07:10;;;;;;;12.93;5.15;;;;;;;;;;10318822;28;20051;-66
2021/09/17 13:12:09;;;;;;;25.40;7.45;;;;;;;;;;10318757;28;20044;-65
2021/09/17 13:17:07;;;;;;;19.35;12.88;;;;;;;;;;10316797;28;20048;-65
2021/09/17 13:22:07;;;;;;;20.10;13.75;;;;;;;;;;10318154;28;20072;-65
2021/09/17 13:27:05;;;;;;;18.60;12.20;;;;;;;;;;10318009;28;20425;-65
2021/09/17 13:32:05;;;;;;;22.45;17.05;;;;;;;;;;10317053;28;20048;-65
2021/09/17 13:37:04;;;;;;;16.67;13.82;;;;;;;;;;10317820;28;20051;-65
2021/09/17 13:42:05;;;;;;;15.77;10.38;;;;;;;;;;10317511;28;20076;-64
2021/09/17 13:47:03;;;;;;;12.90;8.25;;;;;;;;;;10316534;28;20040;-64
2021/09/17 13:52:02;;;;;;;10.40;8.02;;;;;;;;;;10316086;28;20052;-64
2021/09/17 13:57:00;;;;;;;12.02;6.40;;;;;;;;;;10317155;28;20418;-64
2021/09/17 14:02:00;;;;;;;13.02;6.68;;;;;;;;;;10317160;28;20520;-64
2021/09/17 14:06:58;;;;;;;14.43;7.20;;;;;;;;;;10317009;28;20513;-64
2021/09/17 14:11:56;;;;;;;14.32;7.70;;;;;;;;;;10316724;28;20075;-64
2021/09/17 14:16:55;;;;;;;17.48;7.78;;;;;;;;;;10316932;28;20083;-64
2021/09/17 14:21:56;;;;;;;12.48;6.85;;;;;;;;;;10315743;28;20068;-64
2021/09/17 14:26:55;;;;;;;14.18;7.30;;;;;;;;;;10318792;28;20055;-64
2021/09/17 14:31:53;;;;;;;15.23;7.10;;;;;;;;;;10324867;28;20224;-64
2021/09/17 14:36:51;;;;;;;17.35;8.82;;;;;;;;;;10324465;28;20041;-64
2021/09/17 14:41:51;;;;;;;14.82;7.43;;;;;;;;;;10323842;28;20075;-64
2021/09/17 14:46:49;;;;;;;18.27;10.00;;;;;;;;;;10324080;28;20068;-64
2021/09/17 14:51:48;;;;;;;18.73;10.88;;;;;;;;;;10323593;28;20049;-64
2021/09/17 14:56:46;;;;;;;21.17;10.95;;;;;;;;;;10323628;28;20045;-64
2021/09/17 15:01:46;;;;;;;11.88;8.38;;;;;;;;;;10323350;28;20079;-65
2021/09/17 15:06:45;;;;;;;12.07;8.73;;;;;;;;;;10323379;28;20044;-64
2021/09/17 15:11:43;;;;;;;19.67;13.48;;;;;;;;;;10322028;28;20563;-64
2021/09/17 15:16:42;;;;;;;27.98;16.02;;;;;;;;;;10322760;28;20067;-64
2021/09/17 15:21:42;;;;;;;30.30;19.95;;;;;;;;;;10322527;28;20079;-64
2021/09/17 15:26:40;;;;;;;17.63;11.13;;;;;;;;;;10322714;28;20056;-65
2021/09/17 15:31:38;;;;;;;13.23;8.75;;;;;;;;;;10322256;28;20045;-66
2021/09/17 15:36:37;;;;;;;15.25;9.57;;;;;;;;;;10322071;28;20068;-66
2021/09/17 15:41:36;;;;;;;16.08;8.60;;;;;;;;;;10323607;28;20048;-65
2021/09/17 15:46:35;;;;;;;18.63;7.95;;;;;;;;;;10325819;28;20456;-65
2021/09/17 15:51:33;;;;;;;21.15;8.18;;;;;;;;;;10320649;28;20051;-66
2021/09/17 15:56:32;;;;;;;13.15;8.02;;;;;;;;;;10321488;28;20067;-65
2021/09/17 16:01:31;;;;;;;19.80;8.00;;;;;;;;;;10321138;28;20544;-67
2021/09/17 16:06:30;;;;;;;15.40;7.45;;;;;;;;;;10320821;28;20055;-65
2021/09/17 16:11:29;;;;;;;24.55;7.00;;;;;;;;;;10330294;28;20052;-65
2021/09/17 16:16:27;;;;;;;23.00;10.10;;;;;;;;;;10321261;28;20047;-65
2021/09/17 16:21:27;;;;;;;20.30;8.15;;;;;;;;;;10320838;28;20076;-66
2021/09/17 16:26:26;;;;;;;13.93;7.85;;;;;;;;;;10320286;28;20045;-66
2021/09/17 16:31:24;;;;;;;16.98;9.00;;;;;;;;;;10317994;28;20051;-66
2021/09/17 16:36:23;;;;;;;12.85;5.80;;;;;;;;;;10319914;28;20052;-65
2021/09/17 16:41:23;;;;;;;13.75;6.80;;;;;;;;;;10319698;28;20076;-66
2021/09/17 16:46:23;;;;;;;12.40;7.22;;;;;;;;;;10319525;28;20487;-65
2021/09/17 16:51:22;;;;;;;15.55;8.55;;;;;;;;;;10317391;28;20045;-65
2021/09/17 16:56:20;;;;;;;25.13;10.18;;;;;;;;;;10318970;28;20052;-66
2021/09/17 17:01:21;;;;;;;22.27;10.63;;;;;;;;;;10318483;28;20084;-65
2021/09/17 17:06:20;;;;;;;25.25;10.73;;;;;;;;;;10318519;28;20056;-66
2021/09/17 17:11:20;;;;;;;22.92;11.18;;;;;;;;;;10317345;28;20059;-66
2021/09/17 17:16:19;;;;;;;23.05;10.90;;;;;;;;;;10318183;28;20055;-65
2021/09/17 17:21:19;;;;;;;18.55;9.50;;;;;;;;;;10317776;28;20086;-66
2021/09/17 17:26:18;;;;;;;22.40;8.93;;;;;;;;;;10316915;28;20048;-66
2021/09/17 17:31:17;;;;;;;24.65;12.05;;;;;;;;;;10317777;28;20063;-67
2021/09/17 17:36:16;;;;;;;28.52;12.07;;;;;;;;;;10317756;28;20049;-67
2021/09/17 17:41:16;;;;;;;19.95;9.82;;;;;;;;;;10317285;28;20080;-66
2021/09/17 17:46:15;;;;;;;16.38;10.77;;;;;;;;;;10317312;28;20044;-67
2021/09/17 17:51:14;;;;;;;21.48;11.63;;;;;;;;;;10316518;28;20048;-66
2021/09/17 17:56:13;;;;;;;23.05;11.02;;;;;;;;;;10317357;28;20095;-68
2021/09/17 18:01:13;;;;;;;17.85;9.65;;;;;;;;;;10316671;28;20083;-67
2021/09/17 18:06:12;;;;;;;17.55;12.95;;;;;;;;;;10316812;28;20049;-66
2021/09/17 18:11:11;;;;;;;14.82;8.43;;;;;;;;;;10316683;28;20410;-66
2021/09/17 18:16:13;;;;;;;17.48;8.77;;;;;;;;;;10316723;28;20048;-66
2021/09/17 18:21:11;;;;;;;18.80;8.07;;;;;;;;;;10316736;28;20086;-67
2021/09/17 18:26:13;;;;;;;18.08;7.80;;;;;;;;;;10298917;28;20080;-67
2021/09/17 18:31:14;;;;;;;22.45;7.93;;;;;;;;;;10285881;28;20072;-65
2021/09/17 18:36:13;;;;;;;19.70;6.90;;;;;;;;;;10272442;28;20080;-66
2021/09/17 18:41:11;;;;;;;14.38;6.13;;;;;;;;;;10271532;28;20095;-66
2021/09/17 18:46:10;;;;;;;24.45;6.40;;;;;;;;;;10271407;28;20069;-68
2021/09/17 18:51:11;;;;;;;17.05;6.10;;;;;;;;;;10271618;28;20093;-66
2021/09/17 18:56:09;;;;;;;12.75;6.40;;;;;;;;;;10275152;28;20052;-66
2021/09/17 19:01:08;;;;;;;22.38;5.38;;;;;;;;;;10275069;28;20081;-66
2021/09/17 19:06:07;;;;;;;14.65;6.63;;;;;;;;;;10274246;28;20056;-64
2021/09/17 19:11:08;;;;;;;13.82;5.32;;;;;;;;;;10274141;28;20092;-66
2021/09/17 19:16:07;;;;;;;8.20;5.03;;;;;;;;;;10279735;28;20068;-64
2021/09/17 19:21:05;;;;;;;12.73;5.88;;;;;;;;;;10281945;28;20089;-64
2021/09/17 19:26:05;;;;;;;14.85;5.38;;;;;;;;;;10280926;28;20056;-65
2021/09/17 19:31:08;;;;;;;14.23;6.88;;;;;;;;;;10280942;28;20049;-65
2021/09/17 19:36:07;;;;;;;12.60;5.60;;;;;;;;;;10292524;28;20049;-65
2021/09/17 19:41:06;;;;;;;12.48;5.75;;;;;;;;;;10282001;28;20088;-65
2021/09/17 19:46:07;;;;;;;14.23;6.40;;;;;;;;;;10280833;28;20049;-65
2021/09/17 19:51:06;;;;;;;13.70;7.22;;;;;;;;;;10284708;28;20061;-65
2021/09/17 19:56:08;;;;;;;13.27;6.40;;;;;;;;;;10300355;28;20072;-65
2021/09/17 20:01:08;;;;;;;14.60;6.45;;;;;;;;;;10320612;28;20465;-65
2021/09/17 20:06:08;;;;;;;14.40;6.07;;;;;;;;;;10342772;28;20041;-67
2021/09/17 20:11:08;;;;;;;11.15;6.10;;;;;;;;;;10338911;28;20478;-65
2021/09/17 20:16:09;;;;;;;15.82;6.68;;;;;;;;;;10322954;28;20528;-65
2021/09/17 20:21:08;;;;;;;10.50;5.90;;;;;;;;;;10320394;28;20154;-64
2021/09/17 20:26:06;;;;;;;13.27;5.82;;;;;;;;;;10319909;28;20497;-65
2021/09/17 20:31:04;;;;;;;12.00;6.43;;;;;;;;;;10296323;28;20535;-65
2021/09/17 20:36:09;;;;;;;14.32;6.60;;;;;;;;;;10291812;28;20087;-64
2021/09/17 20:41:07;;;;;;;14.88;6.30;;;;;;;;;;10275937;28;20075;-65
2021/09/17 20:46:05;;;;;;;15.80;5.60;;;;;;;;;;10273506;28;20065;-65
2021/09/17 20:51:09;;;;;;;9.80;5.93;;;;;;;;;;10297345;28;20087;-63
2021/09/17 20:56:09;;;;;;;16.88;6.45;;;;;;;;;;10289681;28;20119;-65
2021/09/17 21:01:07;;;;;;;18.27;6.82;;;;;;;;;;10275497;28;20083;-65
2021/09/17 21:06:06;;;;;;;13.02;5.65;;;;;;;;;;10277284;28;20056;-65
2021/09/17 21:11:05;;;;;;;17.70;5.72;;;;;;;;;;10277505;28;20533;-65
2021/09/17 21:16:04;;;;;;;16.15;6.10;;;;;;;;;;10277504;28;20049;-65
2021/09/17 21:21:02;;;;;;;24.50;7.68;;;;;;;;;;10277216;28;20044;-65
2021/09/17 21:26:01;;;;;;;13.23;5.38;;;;;;;;;;10276777;28;20076;-63
2021/09/17 21:31:00;;;;;;;18.80;6.47;;;;;;;;;;10276805;28;20055;-63
2021/09/17 21:35:59;;;;;;;9.70;5.75;;;;;;;;;;10276277;28;20041;-62
2021/09/17 21:40:57;;;;;;;14.38;5.70;;;;;;;;;;10276694;28;20391;-63
2021/09/17 21:45:55;;;;;;;17.45;5.70;;;;;;;;;;10276413;28;20073;-64
2021/09/17 21:50:55;;;;;;;13.52;6.07;;;;;;;;;;10276494;28;20052;-65
2021/09/17 21:55:53;;;;;;;16.95;5.63;;;;;;;;;;10276078;28;20068;-64
2021/09/17 22:00:52;;;;;;;19.35;5.88;;;;;;;;;;10275960;28;20076;-66
2021/09/17 22:05:50;;;;;;;13.60;6.32;;;;;;;;;;10275916;28;20083;-65
2021/09/17 22:10:50;;;;;;;13.65;5.95;;;;;;;;;;10275436;28;20060;-64
2021/09/17 22:15:48;;;;;;;18.13;6.25;;;;;;;;;;10275794;28;20041;-65
2021/09/17 22:20:47;;;;;;;19.55;6.53;;;;;;;;;;10275916;28;20042;-65
2021/09/17 22:25:45;;;;;;;17.73;7.22;;;;;;;;;;10275671;28;20517;-65
2021/09/17 22:30:45;;;;;;;19.80;6.10;;;;;;;;;;10274865;28;20433;-64
2021/09/17 22:35:43;;;;;;;20.08;6.03;;;;;;;;;;10275238;28;20045;-65
2021/09/17 22:40:41;;;;;;;18.70;6.57;;;;;;;;;;10275284;28;20044;-64
2021/09/17 22:45:40;;;;;;;14.77;6.40;;;;;;;;;;10274463;28;20498;-65
2021/09/17 22:50:39;;;;;;;18.63;6.13;;;;;;;;;;10279265;28;20068;-65
2021/09/17 22:55:38;;;;;;;15.43;5.50;;;;;;;;;;10282847;28;20049;-65
2021/09/17 23:00:36;;;;;;;19.45;6.93;;;;;;;;;;10281833;28;20056;-64
2021/09/17 23:05:35;;;;;;;17.67;5.97;;;;;;;;;;10282700;28;20482;-64
2021/09/17 23:10:34;;;;;;;21.42;6.65;;;;;;;;;;10281802;28;20056;-64
2021/09/17 23:15:34;;;;;;;43.85;9.20;;;;;;;;;;10282744;28;20053;-64
2021/09/17 23:20:32;;;;;;;29.63;8.80;;;;;;;;;;10282172;28;20075;-64
2021/09/17 23:25:30;;;;;;;23.85;7.88;;;;;;;;;;10281734;28;20073;-65
2021/09/17 23:30:30;;;;;;;26.88;6.55;;;;;;;;;;10281620;28;20041;-65
2021/09/17 23:35:28;;;;;;;18.23;6.28;;;;;;;;;;10288585;28;20053;-65
2021/09/17 23:40:27;;;;;;;28.60;7.57;;;;;;;;;;10306619;28;20060;-64
2021/09/17 23:45:25;;;;;;;21.85;7.18;;;;;;;;;;10281338;28;20087;-65
2021/09/17 23:50:25;;;;;;;20.02;6.43;;;;;;;;;;10280428;28;20053;-64
2021/09/17 23:55:23;;;;;;;13.82;6.63;;;;;;;;;;10280480;28;20073;-64
